createdAt,value
2019-05-23T00:02:05.574Z,5.30
2019-05-23T00:04:40.140Z,4.70
2019-05-23T00:07:15.358Z,5.03
2019-05-23T00:09:50.216Z,4.70
2019-05-23T00:12:25.876Z,4.47
2019-05-23T00:15:02.065Z,4.42
2019-05-23T00:17:35.903Z,4.90
2019-05-23T00:20:10.179Z,5.20
2019-05-23T00:22:44.949Z,5.20
2019-05-23T00:25:17.961Z,6.33
2019-05-23T00:27:50.268Z,6.97
2019-05-23T00:30:24.113Z,5.65
2019-05-23T00:32:58.561Z,6.60
2019-05-23T00:35:32.573Z,5.97
2019-05-23T00:38:06.017Z,5.92
2019-05-23T00:40:39.312Z,6.42
2019-05-23T00:43:11.878Z,6.12
2019-05-23T00:45:43.626Z,6.05
2019-05-23T00:48:16.289Z,7.05
2019-05-23T00:50:51.188Z,7.70
2019-05-23T00:53:23.744Z,7.30
2019-05-23T00:55:57.319Z,6.53
2019-05-23T00:58:30.931Z,7.33
2019-05-23T01:01:03.063Z,6.05
2019-05-23T01:03:35.589Z,7.15
2019-05-23T01:06:07.897Z,6.85
2019-05-23T01:08:41.838Z,6.35
2019-05-23T01:11:15.803Z,6.60
2019-05-23T01:13:48.101Z,7.40
2019-05-23T01:16:24.202Z,7.45
2019-05-23T01:18:56.456Z,7.00
2019-05-23T01:21:29.666Z,6.87
2019-05-23T01:24:03.411Z,6.20
2019-05-23T01:26:36.981Z,7.92
2019-05-23T01:29:09.594Z,7.00
2019-05-23T01:31:43.054Z,6.83
2019-05-23T01:34:15.862Z,6.55
2019-05-23T01:36:49.028Z,6.72
2019-05-23T01:39:21.584Z,5.90
2019-05-23T01:41:55.583Z,6.25
2019-05-23T01:44:29.620Z,5.47
2019-05-23T01:47:03.615Z,5.72
2019-05-23T01:49:36.205Z,5.42
2019-05-23T01:52:10.790Z,5.75
2019-05-23T01:54:44.892Z,5.72
2019-05-23T01:57:16.393Z,5.65
2019-05-23T02:00:06.103Z,6.25
2019-05-23T02:02:24.623Z,6.35
2019-05-23T02:04:57.799Z,7.00
2019-05-23T02:07:30.745Z,6.45
2019-05-23T02:10:02.720Z,6.85
2019-05-23T02:12:35.998Z,6.55
2019-05-23T02:15:10.520Z,6.10
2019-05-23T02:17:42.665Z,6.72
2019-05-23T02:20:16.458Z,6.33
2019-05-23T02:22:49.043Z,6.58
2019-05-23T02:25:23.067Z,6.90
2019-05-23T02:27:55.576Z,6.30
2019-05-23T02:30:34.495Z,7.83
2019-05-23T02:33:03.264Z,6.95
2019-05-23T02:35:36.105Z,6.55
2019-05-23T02:38:09.350Z,6.65
2019-05-23T02:40:42.379Z,7.35
2019-05-23T02:43:15.224Z,7.10
2019-05-23T02:45:51.291Z,6.67
2019-05-23T02:48:25.771Z,5.75
2019-05-23T02:51:01.327Z,6.20
2019-05-23T02:53:35.971Z,6.40
2019-05-23T02:56:11.909Z,7.33
2019-05-23T02:58:48.222Z,6.25
2019-05-23T03:01:23.142Z,5.80
2019-05-23T03:03:56.642Z,6.95
2019-05-23T03:06:30.189Z,6.55
2019-05-23T03:09:04.064Z,6.33
2019-05-23T03:11:39.295Z,6.53
2019-05-23T03:14:13.681Z,6.87
2019-05-23T03:16:48.473Z,7.25
2019-05-23T03:19:24.228Z,7.20
2019-05-23T03:21:56.814Z,7.08
2019-05-23T03:24:29.321Z,7.40
2019-05-23T03:27:04.224Z,7.12
2019-05-23T03:29:35.969Z,7.85
2019-05-23T03:32:09.884Z,8.00
2019-05-23T03:34:43.577Z,7.37
2019-05-23T03:37:17.150Z,7.65
2019-05-23T03:39:49.295Z,7.78
2019-05-23T03:42:21.106Z,7.15
2019-05-23T03:44:53.419Z,7.60
2019-05-23T03:47:28.461Z,7.67
2019-05-23T03:50:01.065Z,7.92
2019-05-23T03:52:34.489Z,7.25
2019-05-23T03:55:08.103Z,7.47
2019-05-23T03:57:39.558Z,6.85
2019-05-23T04:00:15.121Z,8.20
2019-05-23T04:02:50.185Z,7.00
2019-05-23T04:05:22.532Z,6.80
2019-05-23T04:07:55.104Z,7.45
2019-05-23T04:10:27.880Z,7.95
2019-05-23T04:12:59.901Z,7.60
2019-05-23T04:15:33.082Z,7.30
2019-05-23T04:18:05.685Z,6.90
2019-05-23T04:20:38.119Z,6.60
2019-05-23T04:23:11.913Z,6.92
2019-05-23T04:25:44.201Z,6.42
2019-05-23T04:28:16.648Z,6.00
2019-05-23T04:30:49.582Z,6.10
2019-05-23T04:33:21.322Z,6.58
2019-05-23T04:35:53.454Z,6.37
2019-05-23T04:38:25.597Z,6.00
2019-05-23T04:40:57.186Z,6.85
2019-05-23T04:43:28.363Z,6.65
2019-05-23T04:46:01.125Z,6.92
2019-05-23T04:48:33.655Z,6.12
2019-05-23T04:51:07.997Z,6.45
2019-05-23T04:53:39.418Z,6.10
2019-05-23T04:56:12.135Z,6.92
2019-05-23T04:58:44.844Z,6.10
2019-05-23T05:01:19.109Z,5.33
2019-05-23T05:03:53.246Z,5.37
2019-05-23T05:06:25.630Z,5.42
2019-05-23T05:09:00.667Z,5.00
2019-05-23T05:11:33.933Z,5.10
2019-05-23T05:14:06.633Z,5.53
2019-05-23T05:16:38.926Z,6.08
2019-05-23T05:19:11.034Z,5.05
2019-05-23T05:21:44.099Z,5.12
2019-05-23T05:24:16.156Z,7.08
2019-05-23T05:26:47.348Z,5.92
2019-05-23T05:29:18.875Z,4.58
2019-05-23T05:31:51.052Z,5.05
2019-05-23T05:34:22.777Z,5.42
2019-05-23T05:36:55.142Z,4.85
2019-05-23T05:39:26.804Z,5.03
2019-05-23T05:41:59.670Z,5.47
2019-05-23T05:44:32.153Z,5.05
2019-05-23T05:47:05.426Z,4.87
2019-05-23T05:49:37.759Z,5.47
2019-05-23T05:52:10.000Z,6.12
2019-05-23T05:54:41.524Z,4.55
2019-05-23T05:57:14.309Z,5.28
2019-05-23T05:59:46.228Z,4.22
2019-05-23T06:02:19.163Z,4.70
2019-05-23T06:04:50.917Z,4.30
2019-05-23T06:07:25.046Z,4.22
2019-05-23T06:09:58.920Z,3.85
2019-05-23T06:12:30.276Z,4.03
2019-05-23T06:15:01.256Z,3.95
2019-05-23T06:17:32.944Z,3.70
2019-05-23T06:20:07.490Z,4.20
2019-05-23T06:22:39.517Z,3.50
2019-05-23T06:25:13.303Z,4.00
2019-05-23T06:27:46.002Z,4.67
2019-05-23T06:30:20.438Z,4.03
2019-05-23T06:32:52.647Z,3.87
2019-05-23T06:35:24.255Z,3.42
2019-05-23T06:37:57.327Z,4.03
2019-05-23T06:40:29.434Z,3.27
2019-05-23T06:43:01.104Z,3.35
2019-05-23T06:45:34.524Z,3.58
2019-05-23T06:48:06.356Z,3.15
2019-05-23T06:50:38.286Z,3.27
2019-05-23T06:53:10.602Z,3.90
2019-05-23T06:55:42.211Z,2.98
2019-05-23T06:58:14.142Z,2.95
2019-05-23T07:00:47.180Z,3.47
2019-05-23T07:03:19.615Z,4.10
2019-05-23T07:05:51.872Z,3.40
2019-05-23T07:08:26.223Z,2.60
2019-05-23T07:10:57.208Z,2.77
2019-05-23T07:13:31.731Z,2.70
2019-05-23T07:16:04.986Z,2.62
2019-05-23T07:18:37.020Z,2.70
2019-05-23T07:21:10.645Z,2.70
2019-05-23T07:23:44.073Z,2.40
2019-05-23T07:26:16.043Z,3.05
2019-05-23T07:28:48.882Z,3.22
2019-05-23T07:31:20.473Z,2.52
2019-05-23T07:34:01.993Z,2.65
2019-05-23T07:36:25.939Z,2.90
2019-05-23T07:38:57.749Z,2.67
2019-05-23T07:41:30.677Z,2.35
2019-05-23T07:44:03.638Z,3.37
2019-05-23T07:46:37.228Z,3.05
2019-05-23T07:49:24.566Z,2.77
2019-05-23T07:51:58.468Z,2.55
2019-05-23T07:54:31.178Z,2.52
2019-05-23T07:57:09.115Z,2.72
2019-05-23T07:59:41.300Z,2.12
2019-05-23T08:02:17.509Z,2.42
2019-05-23T08:04:52.208Z,2.70
2019-05-23T08:07:27.278Z,2.35
2019-05-23T08:09:59.752Z,2.30
2019-05-23T08:12:32.455Z,2.37
2019-05-23T08:15:08.279Z,2.35
2019-05-23T08:17:40.549Z,2.45
2019-05-23T08:20:14.364Z,2.40
2019-05-23T08:22:46.587Z,2.15
2019-05-23T08:25:18.116Z,2.58
2019-05-23T08:27:50.897Z,2.27
2019-05-23T08:30:25.036Z,2.58
2019-05-23T08:32:57.376Z,2.33
2019-05-23T08:35:29.648Z,2.15
2019-05-23T08:38:02.641Z,2.55
2019-05-23T08:40:34.921Z,1.65
2019-05-23T08:43:07.313Z,1.70
2019-05-23T08:45:39.776Z,2.00
2019-05-23T08:48:11.333Z,2.00
2019-05-23T08:50:43.340Z,1.70
2019-05-23T08:53:15.689Z,1.95
2019-05-23T08:55:47.641Z,2.50
2019-05-23T08:58:20.750Z,2.30
2019-05-23T09:00:52.898Z,1.92
2019-05-23T09:03:25.665Z,1.82
2019-05-23T09:05:58.102Z,1.77
2019-05-23T09:08:31.544Z,2.17
2019-05-23T09:11:03.328Z,2.30
2019-05-23T09:13:34.678Z,1.85
2019-05-23T09:16:07.034Z,1.60
2019-05-23T09:18:38.599Z,2.02
2019-05-23T09:21:12.761Z,1.82
2019-05-23T09:23:45.364Z,1.98
2019-05-23T09:26:18.189Z,1.92
2019-05-23T09:28:51.738Z,1.70
2019-05-23T09:31:24.804Z,1.90
2019-05-23T09:33:57.472Z,1.62
2019-05-23T09:36:29.834Z,1.40
2019-05-23T09:39:01.957Z,2.12
2019-05-23T09:41:34.522Z,2.08
2019-05-23T09:44:07.493Z,1.70
2019-05-23T09:46:40.275Z,1.80
2019-05-23T09:49:14.395Z,1.45
2019-05-23T09:51:48.549Z,1.50
2019-05-23T09:54:20.370Z,1.77
2019-05-23T09:56:52.349Z,1.72
2019-05-23T09:59:24.944Z,1.55
2019-05-23T10:01:58.339Z,1.40
2019-05-23T10:04:30.253Z,1.77
2019-05-23T10:07:02.263Z,1.70
2019-05-23T10:09:34.150Z,1.47
2019-05-23T10:12:06.092Z,1.22
2019-05-23T10:14:39.491Z,1.17
2019-05-23T10:17:11.401Z,1.62
2019-05-23T10:19:43.510Z,1.15
2019-05-23T10:22:15.612Z,1.40
2019-05-23T10:24:47.693Z,1.35
2019-05-23T10:27:20.709Z,1.57
2019-05-23T10:29:52.779Z,1.17
2019-05-23T10:32:24.245Z,1.22
2019-05-23T10:34:55.873Z,1.35
2019-05-23T10:37:28.911Z,1.10
2019-05-23T10:40:00.605Z,1.37
2019-05-23T10:42:32.661Z,1.20
2019-05-23T10:45:05.948Z,1.67
2019-05-23T10:47:40.070Z,1.52
2019-05-23T10:50:12.812Z,0.70
2019-05-23T10:52:44.884Z,1.00
2019-05-23T10:55:16.491Z,0.98
2019-05-23T10:57:48.842Z,1.00
2019-05-23T11:00:22.528Z,1.30
2019-05-23T11:02:54.533Z,1.02
2019-05-23T11:05:27.190Z,1.30
2019-05-23T11:07:59.487Z,0.78
2019-05-23T11:10:33.650Z,1.12
2019-05-23T11:13:05.469Z,1.00
2019-05-23T11:15:38.248Z,1.05
2019-05-23T11:18:12.825Z,0.85
2019-05-23T11:20:44.180Z,1.00
2019-05-23T11:23:17.435Z,0.80
2019-05-23T11:25:49.086Z,1.07
2019-05-23T11:28:21.107Z,0.90
2019-05-23T11:30:54.064Z,0.98
2019-05-23T11:33:25.397Z,1.10
2019-05-23T11:35:57.015Z,1.00
2019-05-23T11:38:29.093Z,0.90
2019-05-23T11:41:00.744Z,1.07
2019-05-23T11:43:31.985Z,1.05
2019-05-23T11:46:04.913Z,0.80
2019-05-23T11:48:36.725Z,0.70
2019-05-23T11:51:08.997Z,0.82
2019-05-23T11:53:45.460Z,0.80
2019-05-23T11:56:15.930Z,1.10
2019-05-23T11:58:48.205Z,1.00
2019-05-23T12:01:21.572Z,0.80
2019-05-23T12:03:55.407Z,0.80
2019-05-23T12:06:30.537Z,1.00
2019-05-23T12:09:01.940Z,1.30
2019-05-23T12:11:36.625Z,0.80
2019-05-23T12:14:06.741Z,0.78
2019-05-23T12:16:38.838Z,1.10
2019-05-23T12:19:10.434Z,1.30
2019-05-23T12:21:42.333Z,1.17
2019-05-23T12:24:15.145Z,0.93
2019-05-23T12:26:46.921Z,0.80
2019-05-23T12:29:19.902Z,1.37
2019-05-23T12:31:51.700Z,1.30
2019-05-23T12:34:23.739Z,1.02
2019-05-23T12:37:17.374Z,0.88
2019-05-23T12:39:29.835Z,0.85
2019-05-23T12:42:01.201Z,1.10
2019-05-23T12:44:34.077Z,1.22
2019-05-23T12:47:07.804Z,0.93
2019-05-23T12:49:41.127Z,0.90
2019-05-23T12:52:14.682Z,0.98
2019-05-23T12:54:46.561Z,1.30
2019-05-23T12:57:18.480Z,0.93
2019-05-23T12:59:49.462Z,1.80
2019-05-23T13:02:22.449Z,1.02
2019-05-23T13:04:53.538Z,0.70
2019-05-23T13:07:35.817Z,0.72
2019-05-23T13:09:58.983Z,1.12
2019-05-23T13:12:30.849Z,1.17
2019-05-23T13:15:03.315Z,1.00
2019-05-23T13:17:35.032Z,0.90
2019-05-23T13:20:08.798Z,0.80
2019-05-23T13:22:41.134Z,1.10
2019-05-23T13:25:13.816Z,1.40
2019-05-23T13:27:45.665Z,1.00
2019-05-23T13:30:17.760Z,0.80
2019-05-23T13:32:49.444Z,0.70
2019-05-23T13:35:21.457Z,0.80
2019-05-23T13:37:54.561Z,1.22
2019-05-23T13:40:26.691Z,0.95
2019-05-23T13:42:59.391Z,1.52
2019-05-23T13:45:31.043Z,1.10
2019-05-23T13:48:03.505Z,0.75
2019-05-23T13:50:36.418Z,0.82
2019-05-23T13:53:10.029Z,0.70
2019-05-23T13:55:42.222Z,0.80
2019-05-23T13:58:14.918Z,0.70
2019-05-23T14:00:48.794Z,1.10
2019-05-23T14:03:21.514Z,0.90
2019-05-23T14:05:53.688Z,1.02
2019-05-23T14:08:25.523Z,0.88
2019-05-23T14:10:58.158Z,1.10
2019-05-23T14:13:37.680Z,1.00
2019-05-23T14:16:12.833Z,0.60
2019-05-23T14:18:45.199Z,0.90
2019-05-23T14:21:17.206Z,1.00
2019-05-23T14:23:49.186Z,0.90
2019-05-23T14:26:21.724Z,1.10
2019-05-23T14:29:05.195Z,0.80
2019-05-23T14:31:37.754Z,0.78
2019-05-23T14:34:10.118Z,1.00
2019-05-23T14:36:49.434Z,0.80
2019-05-23T14:39:23.035Z,0.85
2019-05-23T14:41:56.271Z,1.62
2019-05-23T14:44:28.450Z,0.82
2019-05-23T14:47:01.241Z,1.00
2019-05-23T14:49:36.176Z,1.00
2019-05-23T14:52:10.291Z,0.80
2019-05-23T14:54:43.641Z,0.82
2019-05-23T14:57:17.123Z,0.82
2019-05-23T14:59:52.676Z,0.68
2019-05-23T15:02:24.858Z,0.93
2019-05-23T15:04:56.303Z,1.45
2019-05-23T15:07:30.039Z,1.00
2019-05-23T15:10:01.775Z,0.90
2019-05-23T15:12:34.398Z,0.93
2019-05-23T15:15:07.586Z,0.65
2019-05-23T15:17:38.856Z,0.60
2019-05-23T15:20:17.120Z,0.80
2019-05-23T15:23:01.203Z,0.62
2019-05-23T15:25:43.727Z,0.90
2019-05-23T15:28:19.399Z,0.93
2019-05-23T15:30:56.142Z,1.25
2019-05-23T15:33:43.554Z,1.00
2019-05-23T15:36:18.823Z,1.45
2019-05-23T15:39:08.783Z,0.68
2019-05-23T15:41:33.393Z,0.80
2019-05-23T15:44:26.071Z,0.93
2019-05-23T15:46:54.870Z,1.10
2019-05-23T15:49:26.484Z,1.60
2019-05-23T15:51:59.613Z,1.00
2019-05-23T15:54:32.835Z,1.00
2019-05-23T15:57:05.950Z,1.40
2019-05-23T15:59:39.443Z,0.90
2019-05-23T16:02:10.691Z,1.30
2019-05-23T16:04:43.718Z,0.80
2019-05-23T16:07:15.149Z,0.75
2019-05-23T16:09:50.378Z,0.95
2019-05-23T16:12:23.179Z,0.93
2019-05-23T16:14:55.358Z,1.57
2019-05-23T16:17:27.091Z,0.85
2019-05-23T16:19:59.068Z,0.80
2019-05-23T16:22:31.338Z,1.00
2019-05-23T16:25:02.678Z,1.22
2019-05-23T16:27:34.619Z,0.93
2019-05-23T16:30:08.770Z,1.10
2019-05-23T16:32:40.534Z,1.20
2019-05-23T16:35:12.566Z,1.60
2019-05-23T16:37:44.248Z,1.20
2019-05-23T16:44:34.289Z,11.88
2019-05-23T16:47:16.080Z,19.77
2019-05-23T16:53:45.604Z,4.95
2019-05-23T16:56:28.640Z,26.17
2019-05-23T16:59:03.371Z,21.55
2019-05-23T17:01:53.133Z,11.88
2019-05-23T17:04:13.702Z,4.75
2019-05-23T17:06:46.555Z,4.67
2019-05-23T17:09:19.847Z,11.12
2019-05-23T17:11:52.821Z,21.62
2019-05-23T17:14:25.797Z,16.12
2019-05-23T17:16:59.125Z,6.42
2019-05-23T17:19:32.507Z,13.18
2019-05-23T17:22:05.824Z,4.72
2019-05-23T17:24:40.046Z,3.05
2019-05-23T17:27:14.071Z,3.10
2019-05-23T17:29:47.891Z,3.00
2019-05-23T17:32:20.808Z,2.27
2019-05-23T17:34:52.297Z,2.80
2019-05-23T17:37:25.208Z,2.85
2019-05-23T17:39:56.976Z,2.75
2019-05-23T17:42:29.209Z,3.27
2019-05-23T17:45:01.084Z,2.70
2019-05-23T17:47:35.244Z,3.27
2019-05-23T17:50:07.973Z,2.98
2019-05-23T17:52:40.016Z,2.98
2019-05-23T17:55:11.768Z,2.80
2019-05-23T17:57:44.311Z,3.22
2019-05-23T18:00:18.315Z,3.60
2019-05-23T18:02:51.640Z,5.92
2019-05-23T18:05:25.127Z,5.97
2019-05-23T18:07:56.867Z,7.20
2019-05-23T18:10:44.101Z,4.83
2019-05-23T18:13:03.831Z,4.00
2019-05-23T18:15:37.377Z,3.67
2019-05-23T18:18:09.881Z,2.83
2019-05-23T18:20:41.678Z,6.08
2019-05-23T18:23:14.044Z,6.20
2019-05-23T18:25:45.725Z,4.42
2019-05-23T18:28:19.726Z,2.83
2019-05-23T18:30:53.673Z,2.52
2019-05-23T18:33:25.768Z,3.08
2019-05-23T18:35:58.049Z,1.95
2019-05-23T18:38:30.237Z,1.85
2019-05-23T18:41:19.210Z,2.08
2019-05-23T18:43:55.251Z,1.70
2019-05-23T18:46:28.293Z,1.70
2019-05-23T18:52:14.323Z,1.72
2019-05-23T18:54:54.611Z,2.72
2019-05-23T18:57:27.019Z,2.85
2019-05-23T19:00:03.643Z,3.30
2019-05-23T19:02:41.515Z,3.42
2019-05-23T19:05:13.993Z,3.37
2019-05-23T19:07:45.696Z,3.27
2019-05-23T19:10:19.739Z,4.25
2019-05-23T19:12:52.019Z,3.70
2019-05-23T19:15:24.065Z,5.05
2019-05-23T19:17:56.135Z,3.50
2019-05-23T19:20:27.996Z,2.25
2019-05-23T19:23:00.725Z,4.15
2019-05-23T19:25:33.463Z,4.15
2019-05-23T19:28:06.158Z,3.92
2019-05-23T19:30:38.155Z,3.17
2019-05-23T19:33:10.605Z,2.52
2019-05-23T19:35:42.806Z,2.72
2019-05-23T19:38:15.975Z,2.45
2019-05-23T19:40:48.117Z,1.65
2019-05-23T19:43:20.455Z,1.70
2019-05-23T19:45:53.430Z,1.60
2019-05-23T19:48:25.851Z,1.85
2019-05-23T19:50:57.247Z,2.05
2019-05-23T19:53:29.892Z,2.05
2019-05-23T19:56:01.696Z,2.35
2019-05-23T19:58:33.180Z,2.27
2019-05-23T20:01:05.781Z,2.55
2019-05-23T20:03:37.295Z,2.55
2019-05-23T20:06:09.824Z,3.17
2019-05-23T20:08:42.015Z,6.17
2019-05-23T20:11:14.024Z,12.23
2019-05-23T20:13:45.475Z,10.18
2019-05-23T20:16:16.809Z,11.43
2019-05-23T20:18:50.089Z,16.10
2019-05-23T20:21:22.612Z,15.60
2019-05-23T20:23:54.845Z,14.83
2019-05-23T20:26:26.029Z,13.35
2019-05-23T20:28:57.749Z,17.23
2019-05-23T20:31:29.865Z,20.25
2019-05-23T20:34:01.826Z,16.62
2019-05-23T20:36:35.167Z,9.75
2019-05-23T20:39:07.978Z,6.87
2019-05-23T20:41:40.696Z,12.10
2019-05-23T20:44:11.918Z,13.72
2019-05-23T20:46:43.420Z,10.32
2019-05-23T20:49:15.490Z,10.30
2019-05-23T20:51:47.075Z,7.22
2019-05-23T20:54:18.901Z,8.70
2019-05-23T20:56:50.551Z,8.48
2019-05-23T20:59:23.110Z,10.75
2019-05-23T21:01:54.898Z,6.58
2019-05-23T21:04:26.717Z,7.12
2019-05-23T21:06:58.544Z,6.97
2019-05-23T21:09:30.371Z,6.35
2019-05-23T21:12:01.762Z,4.75
2019-05-23T21:14:33.856Z,3.98
2019-05-23T21:17:06.090Z,8.65
2019-05-23T21:19:37.696Z,7.78
2019-05-23T21:22:09.147Z,9.25
2019-05-23T21:24:40.596Z,9.58
2019-05-23T21:27:11.821Z,8.98
2019-05-23T21:29:43.695Z,9.25
2019-05-23T21:32:15.226Z,9.45
2019-05-23T21:34:46.368Z,9.78
2019-05-23T21:37:18.446Z,8.20
2019-05-23T21:39:50.400Z,7.62
2019-05-23T21:42:22.681Z,6.78
2019-05-23T21:44:54.252Z,7.15
2019-05-23T21:47:26.406Z,8.15
2019-05-23T21:49:57.977Z,6.37
2019-05-23T21:52:29.791Z,6.95
2019-05-23T21:55:01.229Z,6.85
2019-05-23T21:57:32.834Z,7.12
2019-05-23T22:00:06.049Z,7.80
2019-05-23T22:02:39.931Z,9.00
2019-05-23T22:05:13.597Z,12.05
2019-05-23T22:07:46.949Z,13.55
2019-05-23T22:10:18.360Z,15.60
2019-05-23T22:13:03.541Z,9.60
2019-05-23T22:15:26.433Z,7.85
2019-05-23T22:17:57.803Z,6.60
2019-05-23T22:20:29.624Z,9.05
2019-05-23T22:23:01.566Z,9.10
2019-05-23T22:25:33.964Z,6.83
2019-05-23T22:28:05.949Z,7.15
2019-05-23T22:30:38.789Z,5.67
2019-05-23T22:33:10.229Z,4.92
2019-05-23T22:35:42.599Z,5.33
2019-05-23T22:38:13.700Z,4.45
2019-05-23T22:40:45.406Z,4.30
2019-05-23T22:43:21.006Z,5.22
2019-05-23T22:45:49.506Z,5.00
2019-05-23T22:48:21.673Z,5.37
2019-05-23T22:50:53.381Z,4.20
2019-05-23T22:53:26.068Z,3.92
2019-05-23T22:55:57.551Z,4.00
2019-05-23T22:58:28.949Z,4.47
2019-05-23T23:01:00.788Z,4.72
2019-05-23T23:03:31.836Z,4.60
2019-05-23T23:06:05.146Z,4.17
2019-05-23T23:08:37.612Z,4.90
2019-05-23T23:11:10.496Z,7.17
2019-05-23T23:13:42.193Z,8.93
2019-05-23T23:16:13.669Z,9.10
2019-05-23T23:18:45.126Z,10.53
2019-05-23T23:21:16.883Z,15.40
2019-05-23T23:23:48.763Z,16.35
2019-05-23T23:26:20.796Z,8.00
2019-05-23T23:28:52.213Z,5.45
2019-05-23T23:31:23.891Z,5.67
2019-05-23T23:33:55.720Z,5.78
2019-05-23T23:36:27.354Z,6.45
2019-05-23T23:38:59.010Z,7.08
2019-05-23T23:41:30.643Z,9.33
2019-05-23T23:44:02.161Z,7.53
2019-05-23T23:46:35.193Z,6.45
2019-05-23T23:49:07.656Z,8.38
2019-05-23T23:51:40.469Z,8.63
2019-05-23T23:54:13.925Z,7.60
2019-05-23T23:56:47.426Z,8.93
2019-05-23T23:59:18.658Z,9.55
